createdAt,value
2023-02-16T00:01:11.857Z,2.89
2023-02-16T00:06:16.023Z,2.80
2023-02-16T00:11:20.187Z,2.73
2023-02-16T00:16:24.424Z,2.69
2023-02-16T00:21:26.610Z,2.58
2023-02-16T00:26:30.798Z,2.59
2023-02-16T00:31:33.198Z,2.52
2023-02-16T00:36:37.188Z,2.49
2023-02-16T00:41:39.486Z,2.40
2023-02-16T00:46:43.678Z,2.39
2023-02-16T00:51:47.842Z,2.45
2023-02-16T00:56:51.987Z,2.64
2023-02-16T01:01:56.261Z,3.20
2023-02-16T01:07:00.356Z,3.71
2023-02-16T01:12:04.463Z,4.13
2023-02-16T01:17:08.676Z,4.33
2023-02-16T01:22:12.830Z,4.41
2023-02-16T01:27:16.966Z,4.50
2023-02-16T01:32:21.248Z,4.57
2023-02-16T01:37:25.308Z,4.84
2023-02-16T01:42:29.483Z,4.91
2023-02-16T01:47:33.622Z,4.85
2023-02-16T01:52:37.823Z,4.83
2023-02-16T01:57:41.967Z,4.83
2023-02-16T02:02:46.145Z,4.77
2023-02-16T02:07:50.266Z,4.76
2023-02-16T02:12:54.521Z,4.68
2023-02-16T02:17:58.622Z,4.78
2023-02-16T02:23:02.770Z,4.73
2023-02-16T02:28:05.054Z,4.62
2023-02-16T02:33:09.218Z,4.53
2023-02-16T02:38:11.472Z,4.46
2023-02-16T02:43:15.626Z,4.40
2023-02-16T02:48:19.819Z,4.42
2023-02-16T02:53:23.977Z,4.39
2023-02-16T02:58:28.134Z,4.33
2023-02-16T03:03:32.275Z,4.09
2023-02-16T03:08:36.460Z,4.01
2023-02-16T03:13:40.635Z,3.80
2023-02-16T03:18:44.772Z,3.51
2023-02-16T03:23:48.956Z,3.34
2023-02-16T03:28:53.116Z,3.15
2023-02-16T03:33:57.303Z,3.22
2023-02-16T03:39:01.465Z,3.18
2023-02-16T03:44:05.639Z,3.20
2023-02-16T03:49:09.747Z,2.99
2023-02-16T03:54:13.941Z,2.84
2023-02-16T03:59:18.098Z,2.69
2023-02-16T04:04:22.311Z,2.59
2023-02-16T04:09:26.414Z,2.49
2023-02-16T04:14:30.574Z,2.40
2023-02-16T04:19:34.766Z,2.34
2023-02-16T04:24:37.071Z,2.39
2023-02-16T04:29:41.190Z,2.64
2023-02-16T04:34:45.371Z,2.86
2023-02-16T04:39:47.626Z,2.91
2023-02-16T04:44:51.791Z,2.90
2023-02-16T04:49:55.959Z,2.84
2023-02-16T04:55:00.132Z,2.70
2023-02-16T05:00:04.297Z,2.61
2023-02-16T05:05:08.448Z,2.49
2023-02-16T05:10:12.604Z,2.36
2023-02-16T05:15:16.778Z,2.24
2023-02-16T05:20:20.972Z,2.29
2023-02-16T05:25:25.109Z,2.18
2023-02-16T05:30:29.331Z,2.12
2023-02-16T05:35:33.427Z,2.06
2023-02-16T05:40:37.598Z,1.98
2023-02-16T05:45:41.775Z,1.87
2023-02-16T05:50:46.377Z,1.94
2023-02-16T05:55:50.106Z,2.15
2023-02-16T06:00:54.277Z,2.19
2023-02-16T06:05:58.430Z,2.10
2023-02-16T06:11:03.010Z,1.99
2023-02-16T06:16:08.861Z,1.92
2023-02-16T06:21:10.996Z,1.90
2023-02-16T06:26:13.208Z,2.19
2023-02-16T06:31:17.669Z,2.22
2023-02-16T06:36:19.653Z,2.28
2023-02-16T06:41:23.827Z,2.49
2023-02-16T06:46:28.056Z,2.49
2023-02-16T06:51:32.155Z,2.64
2023-02-16T06:56:37.974Z,2.78
2023-02-16T07:01:40.465Z,2.81
2023-02-16T07:06:44.841Z,2.87
2023-02-16T07:11:48.814Z,3.02
2023-02-16T07:16:52.948Z,3.16
2023-02-16T07:21:57.117Z,3.36
2023-02-16T07:27:01.293Z,3.38
2023-02-16T07:32:05.653Z,3.40
2023-02-16T07:37:09.605Z,3.54
2023-02-16T07:42:13.825Z,3.63
2023-02-16T07:47:17.930Z,3.72
2023-02-16T07:52:22.118Z,3.80
2023-02-16T07:57:26.299Z,3.92
2023-02-16T08:02:30.559Z,4.18
2023-02-16T08:07:34.622Z,4.31
2023-02-16T08:12:38.781Z,4.44
2023-02-16T08:17:42.939Z,4.67
2023-02-16T08:22:45.183Z,4.89
2023-02-16T08:27:49.396Z,5.15
2023-02-16T08:32:51.648Z,5.45
2023-02-16T08:37:55.824Z,5.78
2023-02-16T08:42:59.980Z,6.00
2023-02-16T08:48:04.201Z,6.03
2023-02-16T08:53:08.280Z,6.12
2023-02-16T08:58:12.444Z,6.19
2023-02-16T09:03:16.634Z,6.30
2023-02-16T09:08:20.753Z,6.44
2023-02-16T09:13:24.930Z,6.60
2023-02-16T09:18:29.118Z,6.72
2023-02-16T09:23:33.229Z,6.82
2023-02-16T09:28:37.456Z,6.84
2023-02-16T09:33:41.611Z,6.91
2023-02-16T09:38:45.773Z,7.19
2023-02-16T09:43:49.877Z,7.54
2023-02-16T09:48:54.059Z,7.77
2023-02-16T09:53:58.211Z,7.96
2023-02-16T09:59:02.387Z,8.15
2023-02-16T10:04:06.627Z,8.30
2023-02-16T10:09:10.712Z,8.35
2023-02-16T10:14:14.915Z,8.46
2023-02-16T10:19:17.152Z,8.60
2023-02-16T10:24:21.363Z,8.71
2023-02-16T10:29:25.491Z,8.76
2023-02-16T10:34:29.807Z,8.85
2023-02-16T10:39:31.930Z,8.89
2023-02-16T10:44:36.104Z,8.90
2023-02-16T10:49:40.257Z,8.99
2023-02-16T10:54:44.401Z,9.03
2023-02-16T10:59:48.603Z,9.03
2023-02-16T11:04:52.738Z,9.14
2023-02-16T11:09:56.906Z,9.23
2023-02-16T11:15:01.080Z,9.29
2023-02-16T11:20:05.207Z,9.35
2023-02-16T11:25:09.388Z,9.43
2023-02-16T11:30:13.595Z,9.52
2023-02-16T11:35:17.752Z,9.67
2023-02-16T11:40:21.902Z,9.89
2023-02-16T11:45:26.017Z,10.03
2023-02-16T11:50:30.187Z,10.00
2023-02-16T11:55:34.339Z,10.00
2023-02-16T12:00:38.499Z,9.96
2023-02-16T12:05:42.670Z,9.89
2023-02-16T12:10:46.813Z,9.89
2023-02-16T12:15:51.096Z,9.91
2023-02-16T12:20:55.145Z,9.87
2023-02-16T12:25:57.421Z,9.71
2023-02-16T12:31:01.597Z,9.63
2023-02-16T12:36:04.121Z,9.63
2023-02-16T12:41:08.082Z,9.65
2023-02-16T12:46:12.188Z,9.72
2023-02-16T12:51:16.329Z,9.77
2023-02-16T12:56:20.479Z,9.90
2023-02-16T13:01:24.683Z,9.99
2023-02-16T13:06:28.799Z,10.06
2023-02-16T13:11:33.023Z,10.15
2023-02-16T13:16:37.209Z,10.18
2023-02-16T13:21:50.535Z,10.16
2023-02-16T13:26:45.629Z,10.21
2023-02-16T13:31:49.821Z,10.31
2023-02-16T13:36:53.789Z,10.48
2023-02-16T13:41:57.942Z,10.54
2023-02-16T13:47:02.119Z,10.64
2023-02-16T13:52:06.246Z,10.74
2023-02-16T13:57:10.507Z,10.72
2023-02-16T14:02:14.599Z,10.65
2023-02-16T14:12:22.918Z,10.45
2023-02-16T14:17:27.079Z,10.42
2023-02-16T14:22:31.221Z,10.28
2023-02-16T14:27:33.499Z,10.25
2023-02-16T14:32:37.688Z,10.23
2023-02-16T14:37:41.829Z,10.11
2023-02-16T14:42:46.004Z,10.06
2023-02-16T14:47:50.152Z,10.05
2023-02-16T14:52:54.304Z,10.10
2023-02-16T14:57:58.447Z,10.11
2023-02-16T15:03:02.648Z,10.32
2023-02-16T15:08:06.767Z,10.71
2023-02-16T15:13:10.958Z,10.89
2023-02-16T15:18:15.134Z,10.93
2023-02-16T15:23:19.268Z,10.88
2023-02-16T15:28:23.431Z,10.89
2023-02-16T15:33:27.618Z,10.80
2023-02-16T15:38:31.815Z,10.90
2023-02-16T15:43:35.944Z,11.08
2023-02-16T15:48:40.107Z,11.27
2023-02-16T15:53:44.215Z,10.94
2023-02-16T15:58:48.381Z,10.70
2023-02-16T16:03:53.260Z,10.65
2023-02-16T16:08:56.716Z,10.58
2023-02-16T16:13:58.982Z,10.47
2023-02-16T16:19:03.375Z,10.29
2023-02-16T16:24:05.469Z,10.20
2023-02-16T16:29:09.588Z,10.12
2023-02-16T16:34:11.831Z,10.04
2023-02-16T16:39:16.018Z,9.94
2023-02-16T16:44:20.189Z,9.99
2023-02-16T16:49:24.394Z,9.98
2023-02-16T16:54:28.543Z,9.92
2023-02-16T16:59:32.666Z,9.90
2023-02-16T17:04:36.839Z,9.99
2023-02-16T17:09:41.026Z,10.04
2023-02-16T17:14:45.159Z,9.99
2023-02-16T17:19:47.426Z,10.10
2023-02-16T17:24:51.560Z,10.12
2023-02-16T17:29:55.805Z,10.11
2023-02-16T17:34:59.892Z,10.10
2023-02-16T17:40:04.086Z,10.14
2023-02-16T17:45:08.246Z,10.11
2023-02-16T17:50:12.399Z,10.14
2023-02-16T17:55:16.526Z,10.17
2023-02-16T18:00:20.732Z,10.22
2023-02-16T18:05:24.844Z,10.20
2023-02-16T18:10:29.021Z,10.21
2023-02-16T18:15:33.202Z,10.29
2023-02-16T18:20:37.459Z,10.24
2023-02-16T18:25:39.620Z,10.05
2023-02-16T18:30:43.864Z,9.94
2023-02-16T18:35:47.968Z,9.88
2023-02-16T18:40:52.118Z,9.84
2023-02-16T18:45:56.317Z,9.76
2023-02-16T18:51:00.442Z,9.71
2023-02-16T18:56:04.961Z,9.61
2023-02-16T19:01:08.806Z,9.49
2023-02-16T19:06:12.944Z,9.38
2023-02-16T19:11:17.095Z,9.25
2023-02-16T19:16:21.261Z,9.14
2023-02-16T19:21:25.432Z,9.07
2023-02-16T19:26:29.581Z,9.00
2023-02-16T19:31:33.791Z,8.95
2023-02-16T19:36:37.904Z,8.93
2023-02-16T19:41:42.065Z,8.90
2023-02-16T19:46:46.192Z,8.87
2023-02-16T19:51:50.374Z,8.85
2023-02-16T19:56:54.532Z,8.80
2023-02-16T20:01:58.691Z,8.75
2023-02-16T20:07:00.948Z,8.70
2023-02-16T20:12:05.142Z,8.65
2023-02-16T20:17:07.386Z,8.58
2023-02-16T20:22:11.596Z,8.54
2023-02-16T20:27:13.845Z,8.49
2023-02-16T20:32:18.109Z,8.46
2023-02-16T20:37:22.194Z,8.42
2023-02-16T20:42:26.321Z,8.39
2023-02-16T20:47:30.493Z,8.37
2023-02-16T20:52:34.641Z,8.37
2023-02-16T20:57:38.789Z,8.40
2023-02-16T21:02:43.000Z,8.42
2023-02-16T21:07:49.145Z,8.43
2023-02-16T21:12:51.335Z,8.42
2023-02-16T21:17:55.456Z,8.40
2023-02-16T21:22:59.625Z,8.41
2023-02-16T21:28:03.763Z,8.39
2023-02-16T21:33:07.923Z,8.41
2023-02-16T21:38:12.092Z,8.40
2023-02-16T21:43:16.260Z,8.42
2023-02-16T21:48:20.427Z,8.44
2023-02-16T21:53:24.608Z,8.45
2023-02-16T21:58:28.782Z,8.48
2023-02-16T22:03:32.907Z,8.46
2023-02-16T22:08:37.222Z,8.46
2023-02-16T22:13:39.358Z,8.43
2023-02-16T22:18:43.525Z,8.40
2023-02-16T22:23:47.696Z,8.37
2023-02-16T22:28:51.841Z,8.34
2023-02-16T22:33:54.079Z,8.32
2023-02-16T22:38:58.348Z,8.32
2023-02-16T22:44:02.450Z,8.32
2023-02-16T22:49:06.665Z,8.32
2023-02-16T22:54:10.747Z,8.37
2023-02-16T22:59:14.925Z,8.38
2023-02-16T23:04:19.083Z,8.41
2023-02-16T23:09:23.244Z,8.49
2023-02-16T23:14:29.186Z,8.59
2023-02-16T23:19:31.556Z,8.63
2023-02-16T23:24:35.707Z,8.69
2023-02-16T23:29:39.908Z,8.74
2023-02-16T23:34:44.037Z,8.76
2023-02-16T23:39:48.205Z,8.86
2023-02-16T23:44:52.346Z,8.89
2023-02-16T23:49:56.518Z,8.93
2023-02-16T23:55:00.728Z,9.01
